CheckWX is a tool to help pilots better visualize weather data.  It is not intended as a substitute for an official pre-flight weather briefing.

15:56:59 UTC

KHEZ METAR
Hardy-Anders Field Natchez-Adams County Airport
Natchez, Mississippi, USA
Current

23 mins ago

KHEZ 261534Z AUTO 15007KT 9SM -RA BKN009 BKN013 OVC041 09/08 A3010 RMK AO2 CIG 007V011 P0007
Observed
Jan-26 @ 15:34 UTC
Wind
  • 150° at 7 KTS
Visibility
9 SM
Flight Rules
IFR
Conditions
Light Rain
Cloud Levels
  • Broken at 900' AGL
  • Broken at 1,300' AGL
  • Overcast at 4,100' AGL
Temperature
C / 48°F
Dewpoint
C / 46°F
Humidity
94%
Altimeter
30.1" Hg
Pressure
1019.32 hPa
Current Rain
0.07"
Previous

32 mins ago

KHEZ 261525Z AUTO 13007KT 7SM RA BKN011 BKN038 OVC045 09/08 A3010 RMK AO2 CIG 007V013 P0006
Observed
Jan-26 @ 15:25 UTC
Wind
  • 130° at 7 KTS
Visibility
7 SM
Flight Rules
MVFR
Conditions
Rain
Cloud Levels
  • Broken at 1,100' AGL
  • Broken at 3,800' AGL
  • Overcast at 4,500' AGL
Temperature
C / 48°F
Dewpoint
C / 46°F
Humidity
94%
Altimeter
30.1" Hg
Pressure
1019.32 hPa
Current Rain
0.06"
Previous

1 hour ago

KHEZ 261456Z AUTO 13005KT 6SM RA BR FEW037 OVC046 09/08 A3011 RMK AO2 SLP198 P0009 60019 T00890078 53009
Observed
Jan-26 @ 14:56 UTC
Wind
  • 130° at 5 KTS
Visibility
6 SM
Flight Rules
VFR
Conditions
Rain, Mist
Cloud Levels
  • Few at 3,700' AGL
  • Overcast at 4,600' AGL
Temperature
C / 48°F
Dewpoint
C / 46°F
Humidity
94%
Altimeter
30.11" Hg
Pressure
1019.62 hPa
Current Rain
0.09"